3/11/20 Check out our new Air Quality page under more advisories. The data comes from a newly installed Davis Instruments Air Quality Sensor.





NORTHAMPTON WEATHER

The latest weather and forecasts for Hardingstone

run by 1st Hardingstone Viking Scout Troop.


Thunder radar more information blitzortung!


Rain radar more information rain snow radar


Nearby METAR Reports

   
EGTC - Cranfield, United Kingdom
Distance from station: SE 24 km
Updated: Jan 22 2021 8:20 am
Clear  
Clear  
   Wind: SW 13 kts
Wind: SW 13 kts
Temperature: 0°C
Wind Chill: -6°C
Dew Point: -1°C
Humidity: 93%
Barometer: 990 mb
Visibility: More than 10 km
Cloud details: Clear
EGTC 220820Z 23013KT CAVOK M00/M01 Q0990
EGTK - Oxford, United Kingdom
Distance from station: SW 51 km
Updated: Jan 22 2021 8:20 am
Partly Cloudy  
Partly Cloudy  
   Wind: WSW 6 kts
Wind: WSW 6 kts
Temperature: 0°C
Wind Chill: -3°C
Dew Point: -1°C
Humidity: 93%
Barometer: 991 mb
Clouds: Partly Cloudy
Visibility: 6 km
Cloud details: Partly Cloudy
EGTK 220820Z 25006KT 6000 NSC M00/M01 Q0991
EGGW - Luton Airport, United Kingdom
Distance from station: SE 52 km
Updated: Jan 22 2021 8:20 am
Clear  
Clear  
   Wind: West 9 kts
Wind: West 9 kts
Temperature: 1°C
Wind Chill: -3°C
Dew Point: 0°C
Humidity: 93%
Barometer: 991 mb
Clouds: Clear
Visibility: More than 10 km
Cloud details: Clear
EGGW 220820Z AUTO 27009KT 9999 NCD 01/M00 Q0991
EGXT - Wittering Raf, United Kingdom
Distance from station: NNE 53 km
Updated: Jan 22 2021 7:50 am
Clear  
Clear  
   Wind: WSW 12 kts
Wind: WSW 12 kts
Temperature: 2°C
Wind Chill: -3°C
Dew Point: 0°C
Humidity: 87%
Barometer: 989 mb
Visibility: More than 10 km
Cloud details: Clear
EGXT 220750Z 25012KT CAVOK 02/M00 Q0989 BLU
EGBB - Birmingham Airpo, United Kingdom
Distance from station: WNW 65 km
Updated: Jan 22 2021 8:20 am
Clear  
Clear  
   Wind: WSW 6 kts
Wind: WSW 6 kts
Temperature: 2°C
Wind Chill: -1°C
Dew Point: 0°C
Humidity: 87%
Barometer: 990 mb
Visibility: More than 10 km
Cloud details: Clear
EGBB 220820Z 24006KT 200V260 CAVOK 02/M00 Q0990
EGUB - Benson Raf, United Kingdom
Distance from station: S 67 km
Updated: Jan 22 2021 8:20 am
Clear  
Clear  
   Wind: South 4 kts
Wind: South 4 kts
Temperature: -2°C
Wind Chill: -5°C
Dew Point: -3°C
Humidity: 93%
Barometer: 991 mb
Visibility: More than 10 km
Cloud details: Clear
EGUB 220820Z 18004KT CAVOK M02/M03 Q0991 NOSIG RMK BLU BLU
EGVN - Brize Norton Raf, United Kingdom
Distance from station: SW 69 km
Updated: Jan 22 2021 8:20 am
Fog, Mostly Cloudy  
Fog, Mostly Cloudy  
   Wind: West 6 kts
Wind: West 6 kts
Temperature: 0°C
Wind Chill: -3°C
Dew Point: 0°C
Humidity: 100%
Barometer: 991 mb
Clouds: Mostly Cloudy
Visibility: 0 km
Cloud details: Mostly Cloudy
EGVN 220820Z 26006KT 0400 FG BKN000 00/M00 Q0991 BECMG FZFG
EGSC - Cambridge, United Kingdom
Distance from station: E 72 km
Updated: Jan 21 2021 5:50 pm
NOT Current
Few Clouds  
Few Clouds  
   Wind: SSW 6 kts
Wind: SSW 6 kts
Temperature: 5°C
Wind Chill: 2°C
Dew Point: 2°C
Humidity: 81%
Barometer: 984 mb
Clouds: Few Clouds
Visibility: More than 10 km
Cloud details: Few Clouds 4800 ft
EGSC 211750Z 21006KT 9999 FEW048 05/02 Q0984
EGNX - East Midlands, United Kingdom
Distance from station: NNW 73 km
Updated: Jan 22 2021 8:20 am
Clear  
Clear  
   Wind: WSW 14 kts
Wind: WSW 14 kts
Temperature: 2°C
Wind Chill: -3°C
Dew Point: 0°C
Humidity: 87%
Barometer: 989 mb
Visibility: More than 10 km
Cloud details: Clear
EGNX 220820Z 24014KT CAVOK 02/M00 Q0989
EGWU - Northolt Raf, United Kingdom
Distance from station: SSE 80 km
Updated: Jan 22 2021 8:20 am
Clear  
Clear  
   Wind: WSW 4 kts
Wind: WSW 4 kts
Temperature: 0°C
Wind Chill: -3°C
Dew Point: 0°C
Humidity: 100%
Barometer: 992 mb
Visibility: More than 10 km
Cloud details: Clear
EGWU 220820Z 25004KT CAVOK 00/M00 Q0992 NOSIG
  

Script developed by  Saratoga-weather.org Adapted for the template by  Weerstation Leuven

You find our weather info also at:

UK Metoffice

WeatherCloud

Weather Underground

United Kingdom Weather Network

AWEKAS

Citizen Weather Observer Program (CWOP)

HAMweather, WeatherForYou, PWS Weather

Equipment we use:

Weather-station
Davis VP2

Weather-program
Weather Display

Provider

Davis VP2

Weather Display